Time;durP1;ratioP1;P1;durP2;ratioP2;P2;SDS_P1;SDS_P2;PMS_P1;PMS_P2;Temp;Humidity;BMP_temperature;BMP_pressure;BME280_temperature;BME280_humidity;BME280_pressure;Samples;Min_cycle;Max_cycle;Signal;HPM_P1;HPM_P2
2022/07/06 00:01:56;;;;;;;5.85;3.33;;;;;;;24.09;39.69;100431.94;5029221;28;20103;-81
2022/07/06 00:04:24;;;;;;;4.43;2.50;;;;;;;24.08;39.48;100424.03;5009491;28;20052;-81
2022/07/06 00:06:51;;;;;;;3.42;2.75;;;;;;;24.08;39.29;100434.88;5024139;28;20519;-80
2022/07/06 00:09:18;;;;;;;3.03;2.47;;;;;;;24.03;38.79;100428.19;5025705;28;20057;-81
2022/07/06 00:11:44;;;;;;;2.85;2.65;;;;;;;23.97;38.94;100431.75;4968165;28;20042;-75
2022/07/06 00:14:11;;;;;;;4.75;2.78;;;;;;;23.93;39.17;100432.38;5025348;28;20041;-78
2022/07/06 00:16:38;;;;;;;2.83;2.55;;;;;;;23.91;38.60;100431.75;5003100;28;20045;-79
2022/07/06 00:19:04;;;;;;;3.35;2.47;;;;;;;23.85;38.55;100432.59;5011675;28;20041;-80
2022/07/06 00:21:31;;;;;;;3.17;2.22;;;;;;;23.82;38.73;100436.56;5017172;28;20050;-79
2022/07/06 00:23:58;;;;;;;2.65;2.20;;;;;;;23.78;38.71;100432.56;5024592;28;20053;-80
2022/07/06 00:26:25;;;;;;;3.53;2.40;;;;;;;23.76;38.83;100440.06;5010740;28;20042;-80
2022/07/06 00:28:51;;;;;;;4.70;3.00;;;;;;;23.66;40.03;100436.91;5006760;28;20053;-80
2022/07/06 00:31:18;;;;;;;3.72;2.70;;;;;;;23.61;41.21;100435.66;5027191;28;20076;-80
2022/07/06 00:33:47;;;;;;;3.58;2.40;;;;;;;23.55;40.73;100432.94;5007167;28;20165;-80
2022/07/06 00:36:13;;;;;;;3.78;2.90;;;;;;;23.48;40.63;100435.63;4992882;28;20488;-80
2022/07/06 00:38:40;;;;;;;3.65;2.45;;;;;;;23.40;40.10;100436.66;5026027;28;20061;-80
2022/07/06 00:41:07;;;;;;;4.28;3.00;;;;;;;23.32;41.98;100433.31;5007547;28;20793;-79
2022/07/06 00:43:55;;;;;;;5.03;2.90;;;;;;;23.18;42.91;100443.28;5027789;28;20129;-79
2022/07/06 00:46:31;;;;;;;5.80;3.38;;;;;;;23.21;43.38;100444.75;4994115;28;20053;-80
2022/07/06 00:48:59;;;;;;;4.45;3.00;;;;;;;23.18;42.55;100437.88;4985231;28;20050;-80
2022/07/06 00:51:30;;;;;;;5.07;3.28;;;;;;;23.10;43.49;100446.16;5028832;28;20098;-80
2022/07/06 00:54:03;;;;;;;3.63;2.65;;;;;;;23.08;44.19;100437.41;5031266;28;20045;-80
2022/07/06 00:56:31;;;;;;;5.10;2.95;;;;;;;23.06;43.44;100444.91;5012758;28;20041;-78
2022/07/06 00:59:01;;;;;;;4.85;3.25;;;;;;;23.05;43.47;100443.22;5003432;28;20041;-75
2022/07/06 01:01:28;;;;;;;4.53;2.80;;;;;;;23.00;42.97;100442.97;5014207;28;20045;-75
2022/07/06 01:03:55;;;;;;;5.85;2.53;;;;;;;22.96;42.96;100443.38;5026477;28;20055;-80
2022/07/06 01:06:22;;;;;;;2.75;2.25;;;;;;;22.95;42.58;100438.16;5008213;28;20095;-79
2022/07/06 01:08:49;;;;;;;2.95;2.60;;;;;;;22.97;42.13;100452.34;4998390;28;20048;-78
2022/07/06 01:11:18;;;;;;;3.45;2.65;;;;;;;22.94;42.06;100455.44;4989688;28;20128;-78
2022/07/06 01:13:47;;;;;;;5.15;2.58;;;;;;;22.90;42.42;100455.00;5001795;28;20485;-75
2022/07/06 01:16:14;;;;;;;5.10;2.70;;;;;;;22.88;42.55;100457.09;5050918;28;20053;-75
2022/07/06 01:18:42;;;;;;;3.40;2.58;;;;;;;22.83;42.16;100450.59;4998252;28;20132;-75
2022/07/06 01:21:10;;;;;;;3.50;2.90;;;;;;;22.80;43.36;100459.13;5027159;28;20045;-79
2022/07/06 01:23:42;;;;;;;3.45;2.78;;;;;;;22.73;44.94;100450.97;5043296;28;20048;-75
2022/07/06 01:26:10;;;;;;;3.67;3.10;;;;;;;22.72;44.00;100457.44;4966129;28;20048;-80
2022/07/06 01:28:38;;;;;;;2.75;2.50;;;;;;;22.74;43.48;100450.78;5015514;28;20077;-80
2022/07/06 01:31:04;;;;;;;3.47;2.50;;;;;;;22.72;42.59;100442.03;5035292;28;20041;-80
2022/07/06 01:33:31;;;;;;;2.95;2.38;;;;;;;22.73;42.08;100449.09;4990804;28;20060;-80
2022/07/06 01:35:58;;;;;;;4.95;2.33;;;;;;;22.75;41.69;100455.16;5013381;28;20067;-80
2022/07/06 01:38:25;;;;;;;2.65;2.38;;;;;;;22.76;41.68;100447.84;5008829;28;20095;-79
2022/07/06 01:41:46;;;;;;;6.03;2.50;;;;;;;22.71;41.42;100451.16;5007257;28;20389;-76
2022/07/06 01:44:12;;;;;;;3.60;2.58;;;;;;;22.70;41.50;100459.50;4986630;28;20205;-79
2022/07/06 01:46:39;;;;;;;3.17;2.88;;;;;;;22.69;41.71;100455.94;5039936;28;20965;-78
2022/07/06 01:49:08;;;;;;;2.92;2.65;;;;;;;22.63;43.34;100459.44;4984231;28;20065;-78
2022/07/06 01:51:35;;;;;;;3.65;2.83;;;;;;;22.57;43.65;100453.97;5024632;28;20049;-78
2022/07/06 01:54:02;;;;;;;4.63;2.60;;;;;;;22.52;43.64;100455.44;5029595;28;20132;-79
2022/07/06 01:56:29;;;;;;;5.75;2.67;;;;;;;22.51;43.88;100451.03;5028504;28;20131;-80
2022/07/06 01:59:00;;;;;;;5.00;2.70;;;;;;;22.48;43.70;100443.31;5008294;28;20065;-81
2022/07/06 02:01:27;;;;;;;4.63;2.30;;;;;;;22.51;42.91;100444.78;5021391;28;20044;-75
2022/07/06 02:03:54;;;;;;;2.78;2.50;;;;;;;22.49;43.34;100453.13;4998389;28;20096;-80
2022/07/06 02:06:21;;;;;;;2.53;2.30;;;;;;;22.44;42.99;100452.88;5013486;28;20037;-80
2022/07/06 02:08:48;;;;;;;5.63;2.42;;;;;;;22.45;42.69;100448.31;5012297;28;20464;-80
2022/07/06 02:11:15;;;;;;;3.33;2.80;;;;;;;22.44;42.74;100446.63;4999222;28;20049;-80
2022/07/06 02:13:43;;;;;;;4.78;2.92;;;;;;;22.43;43.34;100443.09;5012402;28;20037;-81
2022/07/06 02:16:11;;;;;;;4.13;2.30;;;;;;;22.38;43.58;100448.25;4992350;28;20045;-80
2022/07/06 02:18:38;;;;;;;2.80;2.38;;;;;;;22.38;43.16;100445.53;5018215;28;20068;-80
2022/07/06 02:21:05;;;;;;;4.30;2.55;;;;;;;22.39;42.87;100447.25;5010014;28;20453;-80
2022/07/06 02:23:31;;;;;;;2.90;2.30;;;;;;;22.38;42.58;100447.44;4976257;28;20045;-80
2022/07/06 02:25:59;;;;;;;3.40;2.42;;;;;;;22.38;43.38;100453.66;5013699;28;20527;-75
2022/07/06 02:28:26;;;;;;;3.47;2.42;;;;;;;22.38;43.01;100447.44;5045927;28;20060;-75
2022/07/06 02:30:53;;;;;;;6.47;2.75;;;;;;;22.38;42.84;100453.66;5013006;28;20115;-75
2022/07/06 02:33:20;;;;;;;4.22;2.20;;;;;;;22.37;42.21;100457.41;4990735;28;20045;-80
2022/07/06 02:35:47;;;;;;;2.30;2.10;;;;;;;22.38;43.17;100455.53;5046238;28;20076;-80
2022/07/06 02:38:14;;;;;;;4.03;2.65;;;;;;;22.34;44.00;100452.41;5022348;28;20147;-79
2022/07/06 02:40:41;;;;;;;3.13;2.80;;;;;;;22.32;44.16;100460.72;5028639;28;20045;-79
2022/07/06 02:43:09;;;;;;;5.65;3.17;;;;;;;22.30;44.33;100454.66;5008146;28;20091;-80
2022/07/06 02:45:38;;;;;;;3.05;2.38;;;;;;;22.27;45.26;100455.06;5012273;28;20564;-79
2022/07/06 02:48:06;;;;;;;3.72;2.80;;;;;;;22.30;44.83;100451.94;5038270;28;20049;-80
2022/07/06 02:50:33;;;;;;;4.35;2.65;;;;;;;22.27;43.69;100449.63;4989793;28;20401;-75
2022/07/06 02:53:01;;;;;;;3.75;2.53;;;;;;;22.29;43.08;100453.00;5012603;28;20114;-75
2022/07/06 02:55:29;;;;;;;3.08;2.53;;;;;;;22.31;42.35;100450.06;5025966;28;20051;-80
2022/07/06 02:57:56;;;;;;;3.90;2.30;;;;;;;22.29;42.80;100454.88;4992192;28;20084;-80
2022/07/06 03:00:23;;;;;;;5.40;2.33;;;;;;;22.29;42.90;100465.69;4992309;28;20155;-80
2022/07/06 03:02:51;;;;;;;4.25;2.50;;;;;;;22.28;42.31;100470.25;4982027;28;20057;-80
2022/07/06 03:05:22;;;;;;;7.60;2.70;;;;;;;22.28;42.19;100467.53;5004686;28;20069;-80
2022/07/06 03:07:49;;;;;;;3.22;2.83;;;;;;;22.31;42.58;100469.88;4991251;28;20135;-80
2022/07/06 03:10:16;;;;;;;5.53;2.38;;;;;;;22.29;42.74;100477.34;5000342;28;20515;-80
2022/07/06 03:12:44;;;;;;;5.15;2.67;;;;;;;22.30;42.88;100480.88;4990489;28;20168;-77
2022/07/06 03:15:12;;;;;;;3.72;2.60;;;;;;;22.25;43.59;100473.34;5015225;28;20057;-77
2022/07/06 03:17:41;;;;;;;3.20;2.90;;;;;;;22.22;43.65;100478.31;5038062;28;20064;-77
2022/07/06 03:20:11;;;;;;;4.45;2.90;;;;;;;22.19;43.95;100471.44;5012524;28;20044;-77
2022/07/06 03:22:39;;;;;;;4.97;2.80;;;;;;;22.18;43.33;100477.00;4985571;28;20050;-78
2022/07/06 03:25:06;;;;;;;3.13;2.67;;;;;;;22.16;42.96;100476.34;4977382;28;20049;-76
2022/07/06 03:27:35;;;;;;;4.18;2.42;;;;;;;22.16;43.23;100482.63;5008786;28;20149;-76
2022/07/06 03:30:03;;;;;;;4.13;2.65;;;;;;;22.09;43.24;100477.16;5011295;28;20128;-76
2022/07/06 03:32:32;;;;;;;3.42;2.53;;;;;;;22.08;43.52;100477.34;4980809;28;20255;-76
2022/07/06 03:35:00;;;;;;;3.00;2.25;;;;;;;22.04;43.22;100476.06;4983640;28;20125;-77
2022/07/06 03:37:27;;;;;;;3.15;2.40;;;;;;;22.00;43.33;100483.72;5004698;28;20080;-82
2022/07/06 03:39:54;;;;;;;3.97;2.50;;;;;;;21.99;42.92;100489.34;4981386;28;20050;-82
2022/07/06 03:42:21;;;;;;;3.92;2.80;;;;;;;21.95;42.70;100483.47;4984139;28;20060;-82
2022/07/06 03:44:48;;;;;;;4.30;2.47;;;;;;;21.95;42.78;100482.63;4983518;28;20045;-82
2022/07/06 03:47:15;;;;;;;2.58;2.38;;;;;;;21.96;42.88;100487.03;4997609;28;20132;-83
2022/07/06 03:49:42;;;;;;;3.83;2.38;;;;;;;21.96;42.97;100495.13;5007818;28;20041;-76
2022/07/06 03:52:09;;;;;;;2.70;2.50;;;;;;;21.96;43.32;100492.44;5012710;28;20038;-76
2022/07/06 03:54:44;;;;;;;3.00;2.42;;;;;;;21.95;43.27;100491.56;4984481;28;20492;-76
2022/07/06 03:57:17;;;;;;;3.83;3.20;;;;;;;21.95;43.45;100483.47;4978824;28;20516;-76
2022/07/06 03:59:44;;;;;;;3.97;2.80;;;;;;;21.97;43.52;100492.22;4991109;28;20042;-76
2022/07/06 04:02:11;;;;;;;4.22;2.95;;;;;;;22.00;42.88;100494.53;5012602;28;20107;-76
2022/07/06 04:04:38;;;;;;;6.38;2.38;;;;;;;22.07;42.54;100495.44;4993667;28;20061;-77
2022/07/06 04:07:05;;;;;;;5.70;2.85;;;;;;;22.11;42.59;100491.31;5009018;28;20118;-77
2022/07/06 04:09:32;;;;;;;3.60;2.30;;;;;;;22.17;42.94;100492.41;5010219;28;20429;-77
2022/07/06 04:11:59;;;;;;;5.88;2.40;;;;;;;22.25;42.82;100496.88;5011913;28;20047;-83
2022/07/06 04:14:27;;;;;;;3.13;2.40;;;;;;;22.30;42.98;100492.53;5010942;28;20110;-82
2022/07/06 04:16:55;;;;;;;5.43;2.70;;;;;;;22.30;42.55;100497.94;4994944;28;20044;-83
2022/07/06 04:19:22;;;;;;;4.07;2.67;;;;;;;22.32;42.75;100493.19;4982218;28;20437;-76
2022/07/06 04:21:49;;;;;;;4.18;2.40;;;;;;;22.34;43.09;100495.69;4981270;28;20529;-76
2022/07/06 04:24:16;;;;;;;4.32;2.55;;;;;;;22.26;42.29;100495.81;4994113;28;20137;-75
2022/07/06 04:26:43;;;;;;;7.50;2.97;;;;;;;22.22;42.37;100500.78;4987855;28;20071;-76
2022/07/06 04:29:10;;;;;;;6.55;3.22;;;;;;;22.21;42.43;100495.56;4989421;28;20045;-76
2022/07/06 04:31:37;;;;;;;5.15;3.38;;;;;;;22.23;42.56;100505.16;5014069;28;20129;-83
2022/07/06 04:34:05;;;;;;;3.90;2.70;;;;;;;22.36;42.91;100500.91;4970968;28;20124;-82
2022/07/06 04:36:32;;;;;;;7.40;3.47;;;;;;;22.36;42.54;100501.72;4967064;28;20103;-82
2022/07/06 04:38:59;;;;;;;6.18;3.05;;;;;;;22.38;42.74;100510.50;5001601;28;20047;-82
2022/07/06 04:41:27;;;;;;;5.07;2.60;;;;;;;22.41;42.78;100504.69;4990911;28;20132;-82
2022/07/06 04:43:54;;;;;;;5.05;3.10;;;;;;;22.39;42.21;100506.78;5010625;28;20107;-76
2022/07/06 04:46:21;;;;;;;5.78;2.80;;;;;;;22.43;42.62;100510.72;4992175;28;20052;-76
2022/07/06 04:48:51;;;;;;;5.18;2.63;;;;;;;22.49;42.94;100512.66;4975154;28;20145;-76
2022/07/06 04:51:23;;;;;;;4.53;3.08;;;;;;;22.55;42.46;100513.75;4993594;28;20079;-82
2022/07/06 04:53:50;;;;;;;6.93;2.65;;;;;;;22.43;42.62;100523.44;4995543;28;20134;-77
2022/07/06 04:56:18;;;;;;;9.82;3.22;;;;;;;22.42;42.28;100519.91;4983320;28;20049;-82
2022/07/06 04:58:45;;;;;;;6.88;2.65;;;;;;;22.26;42.55;100523.75;4993652;28;20381;-76
2022/07/06 05:01:15;;;;;;;4.57;2.47;;;;;;;22.15;42.39;100520.69;4987229;28;20053;-76
2022/07/06 05:03:42;;;;;;;4.40;2.70;;;;;;;21.97;42.77;100526.53;5049246;28;20038;-76
2022/07/06 05:06:12;;;;;;;3.00;2.70;;;;;;;22.00;42.90;100518.88;5035424;28;20049;-75
2022/07/06 05:08:39;;;;;;;6.72;2.67;;;;;;;22.05;43.41;100527.25;5027656;28;20044;-78
2022/07/06 05:11:06;;;;;;;3.20;2.50;;;;;;;21.99;43.11;100521.78;5007010;28;20525;-75
2022/07/06 05:13:33;;;;;;;4.43;2.63;;;;;;;21.91;43.03;100522.75;5025098;28;20044;-82
2022/07/06 05:16:01;;;;;;;3.72;2.67;;;;;;;21.79;43.30;100524.28;5002921;28;20395;-82
2022/07/06 05:18:28;;;;;;;6.75;2.63;;;;;;;21.80;43.28;100532.19;5009800;28;20606;-82
2022/07/06 05:20:56;;;;;;;4.60;2.50;;;;;;;21.74;43.45;100538.38;5016822;28;20036;-82
2022/07/06 05:23:24;;;;;;;7.60;2.50;;;;;;;21.83;43.08;100529.13;5026422;28;20050;-75
2022/07/06 05:25:53;;;;;;;7.78;2.90;;;;;;;21.85;43.18;100527.06;5040082;28;20041;-79
2022/07/06 05:28:20;;;;;;;4.90;2.60;;;;;;;21.93;42.76;100519.84;5024562;28;20060;-76
2022/07/06 05:30:48;;;;;;;5.43;2.70;;;;;;;22.04;42.87;100522.03;5029847;28;20054;-77
2022/07/06 05:33:16;;;;;;;9.85;2.58;;;;;;;22.02;42.82;100532.22;5015403;28;20054;-76
2022/07/06 05:35:44;;;;;;;2.70;2.50;;;;;;;22.06;42.94;100537.03;5015710;28;20120;-83
2022/07/06 05:38:19;;;;;;;7.80;2.75;;;;;;;22.01;43.05;100534.09;5030596;28;20048;-78
2022/07/06 05:40:47;;;;;;;7.63;2.83;;;;;;;22.05;42.88;100531.81;4988015;28;20128;-78
2022/07/06 05:43:14;;;;;;;4.40;2.50;;;;;;;22.01;43.46;100539.50;5054272;28;20065;-82
2022/07/06 05:45:41;;;;;;;5.82;2.63;;;;;;;22.00;42.90;100545.91;5045755;28;20041;-83
2022/07/06 05:50:56;;;;;;;4.05;2.20;;;;;;;21.83;43.01;100542.66;4954611;28;20052;-78
2022/07/06 05:53:24;;;;;;;6.07;2.42;;;;;;;21.94;42.92;100546.69;4991500;28;20597;-83
2022/07/06 05:55:53;;;;;;;8.80;2.88;;;;;;;21.99;43.15;100543.41;4991975;28;20080;-77
2022/07/06 05:58:21;;;;;;;4.85;2.42;;;;;;;21.84;43.06;100543.47;4968893;28;20045;-76
2022/07/06 06:00:48;;;;;;;4.82;2.20;;;;;;;21.84;43.03;100541.59;5006847;28;20053;-76
2022/07/06 06:03:18;;;;;;;3.72;2.58;;;;;;;21.74;43.32;100553.75;4992555;28;20045;-83
2022/07/06 06:05:47;;;;;;;5.15;2.53;;;;;;;21.75;43.18;100552.72;4990392;28;20569;-82
2022/07/06 06:08:17;;;;;;;3.83;2.28;;;;;;;21.90;43.48;100553.50;5007992;28;20046;-83
2022/07/06 06:10:44;;;;;;;3.65;2.53;;;;;;;21.94;43.27;100562.94;4993909;28;20139;-83
2022/07/06 06:13:13;;;;;;;5.88;2.78;;;;;;;22.01;43.05;100554.88;4992225;28;20049;-82
2022/07/06 06:15:41;;;;;;;4.13;2.50;;;;;;;22.03;43.02;100561.78;5009796;28;20654;-83
2022/07/06 06:18:07;;;;;;;7.65;2.65;;;;;;;22.02;43.40;100557.38;5010779;28;20155;-82
2022/07/06 06:20:34;;;;;;;4.55;2.50;;;;;;;21.94;43.28;100553.97;4996889;28;20097;-83
2022/07/06 06:23:04;;;;;;;5.07;2.88;;;;;;;21.98;43.38;100556.13;4981487;28;20046;-82
2022/07/06 06:25:32;;;;;;;5.40;2.60;;;;;;;22.01;43.32;100560.31;4987362;28;20069;-83
2022/07/06 06:27:59;;;;;;;5.93;2.50;;;;;;;21.95;43.01;100553.78;4995063;28;20053;-82
2022/07/06 06:30:26;;;;;;;5.22;2.50;;;;;;;22.06;42.70;100550.56;5009379;28;20045;-76
2022/07/06 06:33:19;;;;;;;4.47;2.25;;;;;;;22.22;43.52;100559.47;5010606;28;20037;-83
2022/07/06 06:35:50;;;;;;;4.60;2.97;;;;;;;22.40;43.27;100554.44;4973312;28;20565;-79
2022/07/06 06:38:20;;;;;;;5.82;2.70;;;;;;;22.48;43.49;100561.56;5002133;28;20053;-83
2022/07/06 06:40:47;;;;;;;6.55;2.83;;;;;;;22.59;42.80;100555.59;4982686;28;20037;-84
2022/07/06 06:43:14;;;;;;;5.60;2.60;;;;;;;22.43;43.13;100554.03;5016334;28;20049;-77
2022/07/06 06:45:56;;;;;;;3.40;3.10;;;;;;;22.52;42.86;100558.28;4984698;28;20046;-77
2022/07/06 06:48:23;;;;;;;6.13;2.63;;;;;;;22.59;43.16;100557.47;4999981;28;20045;-83
2022/07/06 06:50:50;;;;;;;5.68;2.42;;;;;;;22.61;43.35;100558.13;5027483;28;20509;-84
2022/07/06 06:53:17;;;;;;;4.25;2.88;;;;;;;22.60;42.77;100554.59;5018772;28;20190;-78
2022/07/06 06:55:43;;;;;;;5.88;2.92;;;;;;;22.52;43.42;100555.56;5006118;28;20095;-83
2022/07/06 06:58:10;;;;;;;4.55;2.72;;;;;;;22.56;43.54;100560.59;5011335;28;20076;-83
2022/07/06 07:00:37;;;;;;;7.68;2.83;;;;;;;22.58;42.60;100564.78;5011830;28;20400;-83
2022/07/06 07:03:03;;;;;;;6.65;2.88;;;;;;;22.67;42.48;100562.75;5024908;28;20075;-83
2022/07/06 07:05:30;;;;;;;4.07;2.70;;;;;;;22.63;43.10;100570.44;4988669;28;20053;-78
2022/07/06 07:07:58;;;;;;;4.22;2.78;;;;;;;22.57;43.32;100562.25;5025735;28;20048;-77
2022/07/06 07:10:32;;;;;;;7.68;2.88;;;;;;;22.59;43.06;100565.59;4981285;28;20103;-78
2022/07/06 07:12:59;;;;;;;4.68;3.00;;;;;;;22.64;43.04;100577.50;4980346;28;20048;-78
2022/07/06 07:15:26;;;;;;;5.90;2.83;;;;;;;22.76;42.55;100572.41;5040933;28;20100;-79
2022/07/06 07:17:52;;;;;;;4.07;2.60;;;;;;;22.74;42.81;100572.63;5021231;28;20096;-78
2022/07/06 07:20:21;;;;;;;5.05;2.65;;;;;;;22.74;43.15;100569.91;5061623;28;20086;-78
2022/07/06 07:22:48;;;;;;;5.75;2.67;;;;;;;22.82;42.92;100574.34;5022080;28;20049;-78
2022/07/06 07:25:15;;;;;;;3.30;2.60;;;;;;;22.81;42.57;100564.53;5021355;28;20076;-78
2022/07/06 07:27:41;;;;;;;5.38;2.92;;;;;;;22.77;42.50;100568.69;5025550;28;20046;-77
2022/07/06 07:30:09;;;;;;;4.15;3.40;;;;;;;22.79;42.93;100572.00;5019094;28;20604;-78
2022/07/06 07:32:35;;;;;;;6.78;2.65;;;;;;;22.76;43.33;100564.28;5025354;28;20053;-78
2022/07/06 07:35:03;;;;;;;6.25;2.88;;;;;;;22.79;43.11;100569.28;5020490;28;20045;-78
2022/07/06 07:37:30;;;;;;;7.22;3.00;;;;;;;22.76;43.43;100564.28;5023285;28;20124;-78
2022/07/06 07:39:57;;;;;;;6.43;2.90;;;;;;;22.78;43.41;100564.09;5009461;28;20045;-78
2022/07/06 07:42:23;;;;;;;4.20;2.63;;;;;;;22.75;43.00;100570.75;5026527;28;20420;-78
2022/07/06 07:44:51;;;;;;;4.13;3.22;;;;;;;22.62;43.36;100560.66;5042433;28;20412;-77
2022/07/06 07:47:18;;;;;;;6.22;3.38;;;;;;;22.69;43.58;100566.09;5023104;28;20076;-77
2022/07/06 07:49:45;;;;;;;5.68;2.80;;;;;;;22.73;43.29;100564.69;5020659;28;20041;-84
2022/07/06 07:52:12;;;;;;;5.22;2.58;;;;;;;22.79;43.13;100571.16;5011304;28;20051;-77
2022/07/06 07:54:38;;;;;;;6.20;2.75;;;;;;;22.78;43.47;100558.69;5025399;28;20056;-77
2022/07/06 07:57:12;;;;;;;3.65;3.00;;;;;;;22.88;42.64;100556.44;5008511;28;20520;-78
2022/07/06 08:07:57;;;;;;;4.47;3.03;;;;;;;23.11;42.95;100554.31;4966102;28;20100;-77
2022/07/06 08:10:26;;;;;;;4.38;3.00;;;;;;;23.14;42.55;100551.19;5001175;28;20042;-76
2022/07/06 08:12:52;;;;;;;4.45;2.83;;;;;;;23.09;42.52;100550.97;4992436;28;20554;-76
2022/07/06 08:15:19;;;;;;;4.53;2.78;;;;;;;23.12;43.00;100558.69;4994565;28;20069;-77
2022/07/06 08:17:46;;;;;;;6.85;3.38;;;;;;;23.08;43.12;100559.31;4996437;28;20073;-77
2022/07/06 08:20:13;;;;;;;6.95;2.42;;;;;;;23.09;43.22;100550.97;5019514;28;20086;-77
2022/07/06 08:23:06;;;;;;;3.83;2.22;;;;;;;23.09;43.96;100563.69;5001096;28;20390;-77
2022/07/06 08:25:33;;;;;;;3.63;2.88;;;;;;;23.15;42.89;100562.88;4994727;28;20138;-77
2022/07/06 08:28:00;;;;;;;3.83;2.42;;;;;;;23.15;43.10;100562.88;5011520;28;20064;-77
2022/07/06 08:30:27;;;;;;;5.28;2.75;;;;;;;23.00;43.13;100559.44;5015037;28;20393;-76
2022/07/06 08:32:58;;;;;;;2.85;2.47;;;;;;;22.86;43.14;100567.47;5015595;28;20496;-77
2022/07/06 08:35:39;;;;;;;3.47;2.72;;;;;;;22.95;43.38;100565.47;4989920;28;20156;-79
2022/07/06 08:38:07;;;;;;;6.93;2.87;;;;;;;22.93;43.48;100562.09;5009769;28;20067;-76
2022/07/06 08:40:34;;;;;;;7.30;3.03;;;;;;;23.01;43.78;100564.69;4996732;28;20042;-77
2022/07/06 08:43:06;;;;;;;;;;;;;;;22.97;43.33;100568.81;5040242;28;20473;-77
2022/07/06 08:45:34;;;;;;;4.88;2.85;;;;;;;23.10;42.75;100568.91;5044092;28;19927;-77
2022/07/06 08:48:05;;;;;;;6.88;2.83;;;;;;;23.10;42.83;100568.91;5003061;28;20102;-77
2022/07/06 08:50:33;;;;;;;4.95;2.60;;;;;;;23.05;43.11;100565.09;4987140;28;20040;-77
2022/07/06 08:53:00;;;;;;;8.30;3.03;;;;;;;23.08;42.39;100567.44;5007550;28;20049;-78
2022/07/06 08:55:29;;;;;;;5.65;2.97;;;;;;;23.14;42.26;100572.88;5010263;28;20537;-79
2022/07/06 08:57:56;;;;;;;4.60;2.65;;;;;;;23.08;42.79;100570.97;5002788;28;20148;-78
2022/07/06 09:00:25;;;;;;;5.00;3.15;;;;;;;22.95;42.57;100565.47;4988720;28;20129;-84
2022/07/06 09:02:56;;;;;;;4.07;2.88;;;;;;;22.97;43.11;100563.41;5024159;28;20041;-84
2022/07/06 09:05:24;;;;;;;4.22;2.80;;;;;;;22.90;43.81;100573.34;5042680;28;20046;-80
2022/07/06 09:07:52;;;;;;;3.90;3.08;;;;;;;22.97;43.03;100563.41;5039325;28;20052;-80
2022/07/06 09:10:27;;;;;;;8.93;3.67;;;;;;;22.98;42.71;100575.09;5010755;28;20048;-80
2022/07/06 09:13:02;;;;;;;5.22;2.78;;;;;;;22.89;43.28;100569.78;5029590;28;20045;-80
2022/07/06 09:15:28;;;;;;;2.88;2.55;;;;;;;22.84;43.10;100572.25;5021428;28;20053;-81
2022/07/06 09:17:57;;;;;;;10.20;2.95;;;;;;;22.88;43.41;100570.00;5024097;28;20068;-79
2022/07/06 09:20:24;;;;;;;3.67;2.30;;;;;;;22.91;43.14;100569.59;5029947;28;20045;-80
2022/07/06 09:22:57;;;;;;;6.82;3.28;;;;;;;22.96;43.52;100572.53;5021701;28;20049;-81
2022/07/06 09:25:24;;;;;;;4.80;2.80;;;;;;;23.08;43.13;100570.97;5012501;28;20424;-84
2022/07/06 09:27:54;;;;;;;5.03;2.90;;;;;;;23.06;42.74;100583.88;5055281;28;20060;-81
2022/07/06 09:30:22;;;;;;;5.20;2.70;;;;;;;23.15;42.60;100576.41;5026596;28;20045;-80
2022/07/06 09:32:51;;;;;;;4.43;2.78;;;;;;;23.24;42.51;100574.41;5023710;28;20073;-80
2022/07/06 09:35:26;;;;;;;5.35;3.00;;;;;;;23.06;42.92;100578.47;5025073;28;20050;-83
2022/07/06 09:38:02;;;;;;;4.97;2.60;;;;;;;23.05;43.07;100582.22;4994161;28;20049;-82
2022/07/06 09:49:30;;;;;;;5.03;2.28;;;;;;;23.23;43.31;100587.13;5009909;28;20037;-83
2022/07/06 09:51:58;;;;;;;4.75;2.47;;;;;;;23.29;43.12;100590.88;5030112;28;20111;-84
2022/07/06 10:12:10;;;;;;;4.10;3.20;;;;;;;22.85;43.19;100587.47;5011708;28;20053;-82
2022/07/06 10:14:37;;;;;;;7.78;3.40;;;;;;;22.99;43.51;100585.72;5000556;28;20085;-82
2022/07/06 10:17:05;;;;;;;4.15;2.42;;;;;;;23.10;43.19;100592.44;4999669;28;20052;-79
2022/07/06 10:19:32;;;;;;;7.38;2.70;;;;;;;23.04;43.02;100587.81;4990515;28;20042;-80
2022/07/06 10:22:01;;;;;;;7.03;3.00;;;;;;;22.92;43.26;100588.38;5014441;28;20044;-79
2022/07/06 10:24:30;;;;;;;5.28;2.58;;;;;;;22.69;43.52;100585.88;4999127;28;20049;-80
2022/07/06 10:27:23;;;;;;;4.22;2.80;;;;;;;22.73;43.43;100578.22;5024646;28;21061;-76
2022/07/06 10:29:50;;;;;;;5.40;2.55;;;;;;;22.96;43.31;100576.06;4955552;28;20045;-77
2022/07/06 10:32:20;;;;;;;5.90;2.72;;;;;;;22.91;42.69;100589.38;4996568;28;20045;-76
2022/07/06 10:35:18;;;;;;;4.07;2.58;;;;;;;23.00;43.55;100584.69;5013713;28;20045;-76
2022/07/06 10:37:45;;;;;;;3.58;2.70;;;;;;;22.89;43.07;100591.44;4970068;28;20045;-79
2022/07/06 10:43:03;;;;;;;5.38;2.80;;;;;;;22.95;43.17;100585.25;4997293;28;20415;-80
2022/07/06 10:45:36;;;;;;;6.65;3.05;;;;;;;23.08;42.87;100591.81;5004020;28;20042;-81
2022/07/06 10:48:11;;;;;;;4.72;2.85;;;;;;;23.23;42.70;100594.38;5015379;28;20477;-81
2022/07/06 10:50:41;;;;;;;9.00;3.08;;;;;;;23.32;42.71;100590.47;5010703;28;20056;-82
2022/07/06 10:53:13;;;;;;;5.88;2.47;;;;;;;23.30;42.35;100596.09;4991196;28;20061;-80
2022/07/06 10:55:43;;;;;;;6.30;2.92;;;;;;;23.35;41.90;100593.63;4968376;28;20042;-80
2022/07/06 10:58:10;;;;;;;4.93;2.80;;;;;;;23.39;41.67;100594.06;5004061;28;20521;-80
2022/07/06 11:00:55;;;;;;;6.22;2.78;;;;;;;23.44;41.71;100586.16;4998458;28;20104;-79
2022/07/06 11:07:50;;;;;;;3.78;2.70;;;;;;;23.55;40.86;100591.00;4977337;28;20037;-80
2022/07/06 11:10:18;;;;;;;4.75;2.90;;;;;;;23.59;41.23;100603.13;4950901;28;20046;-76
2022/07/06 11:12:45;;;;;;;4.28;2.58;;;;;;;23.58;41.99;100593.31;4980794;28;20050;-76
2022/07/06 11:15:11;;;;;;;6.07;2.80;;;;;;;23.64;41.79;100596.28;4966216;28;20046;-81
2022/07/06 11:17:38;;;;;;;4.30;3.28;;;;;;;23.68;41.38;100594.81;4948519;28;20912;-81
2022/07/06 11:20:10;;;;;;;6.88;3.10;;;;;;;23.76;40.80;100586.50;4965588;28;20535;-81
2022/07/06 11:22:38;;;;;;;6.87;3.27;;;;;;;23.61;40.96;100595.63;4963885;28;20571;-81
2022/07/06 11:25:05;;;;;;;4.93;3.35;;;;;;;23.56;40.62;100599.97;4975527;28;20089;-79
2022/07/06 11:27:34;;;;;;;7.10;3.70;;;;;;;23.30;41.26;100601.50;5003554;28;20591;-80
2022/07/06 11:30:01;;;;;;;4.97;3.45;;;;;;;23.24;41.62;100601.50;5002303;28;20060;-79
2022/07/06 11:32:28;;;;;;;8.98;3.78;;;;;;;23.29;41.67;100604.44;4978014;28;20058;-79
2022/07/06 11:34:56;;;;;;;5.47;3.00;;;;;;;23.38;41.22;100606.78;4980218;28;20069;-79
2022/07/06 11:37:23;;;;;;;5.97;3.60;;;;;;;23.38;41.00;100595.94;4995524;28;20510;-79
2022/07/06 11:44:29;;;;;;;6.18;3.10;;;;;;;23.27;41.22;100582.13;5010502;28;20160;-82
2022/07/06 11:46:59;;;;;;;5.35;2.97;;;;;;;23.39;41.26;100580.50;5030211;28;20049;-81
2022/07/06 11:54:01;;;;;;;5.25;3.10;;;;;;;23.53;40.60;100579.50;5006441;28;20061;-79
2022/07/06 11:56:28;;;;;;;;;;;;;;;23.55;40.18;100574.72;5026812;28;20143;-80
2022/07/06 11:58:59;;;;;;;4.35;3.17;;;;;;;23.71;39.86;100576.28;5061408;28;20011;-78
2022/07/06 12:01:30;;;;;;;7.07;3.35;;;;;;;23.90;40.11;100576.56;5008615;28;20441;-78
2022/07/06 12:03:59;;;;;;;3.88;3.33;;;;;;;23.95;39.83;100580.31;5041115;28;20052;-82
2022/07/06 12:06:27;;;;;;;5.40;3.20;;;;;;;23.82;38.92;100577.56;5029468;28;20492;-81
2022/07/06 12:08:58;;;;;;;8.50;3.63;;;;;;;23.70;37.97;100563.72;5015148;28;20053;-82
2022/07/06 12:11:30;;;;;;;3.20;2.88;;;;;;;23.88;38.74;100578.63;4984576;28;20045;-79
2022/07/06 12:13:58;;;;;;;7.72;3.17;;;;;;;24.00;39.07;100574.28;5011533;28;20041;-78
2022/07/06 12:16:35;;;;;;;5.72;3.25;;;;;;;23.87;38.04;100577.81;5000120;28;20049;-80
2022/07/06 12:19:03;;;;;;;5.25;2.72;;;;;;;23.76;38.06;100553.97;5004278;28;20050;-79
2022/07/06 12:21:34;;;;;;;6.80;2.72;;;;;;;23.90;37.48;100563.00;4961972;28;20720;-77
2022/07/06 12:24:01;;;;;;;8.40;3.40;;;;;;;23.86;37.96;100559.00;5005418;28;20057;-78
2022/07/06 12:26:29;;;;;;;5.55;2.85;;;;;;;23.79;37.86;100553.59;4977858;28;20417;-78
2022/07/06 12:29:14;;;;;;;4.95;2.95;;;;;;;23.61;37.14;100549.53;4959127;28;20050;-82